sensor_id;sensor_type;location;lat;lon;timestamp;temperature;humidity
21255;DHT22;10785;50.674;17.954;2024-02-26T00:01:59;7.90;1.00
21255;DHT22;10785;50.674;17.954;2024-02-26T00:04:35;8.00;1.00
21255;DHT22;10785;50.674;17.954;2024-02-26T00:07:13;8.00;1.00
21255;DHT22;10785;50.674;17.954;2024-02-26T00:10:05;8.00;1.00
21255;DHT22;10785;50.674;17.954;2024-02-26T00:12:56;7.70;1.00
21255;DHT22;10785;50.674;17.954;2024-02-26T00:15:37;7.80;1.00
21255;DHT22;10785;50.674;17.954;2024-02-26T00:18:19;7.80;1.00
21255;DHT22;10785;50.674;17.954;2024-02-26T00:21:08;8.40;1.00
21255;DHT22;10785;50.674;17.954;2024-02-26T00:23:52;7.90;1.00
21255;DHT22;10785;50.674;17.954;2024-02-26T00:26:44;8.20;1.00
21255;DHT22;10785;50.674;17.954;2024-02-26T00:29:31;7.70;1.00
21255;DHT22;10785;50.674;17.954;2024-02-26T00:32:13;7.70;1.00
21255;DHT22;10785;50.674;17.954;2024-02-26T00:34:46;7.90;1.00
21255;DHT22;10785;50.674;17.954;2024-02-26T00:37:32;7.60;1.00
21255;DHT22;10785;50.674;17.954;2024-02-26T00:40:12;8.30;1.00
21255;DHT22;10785;50.674;17.954;2024-02-26T00:42:51;7.50;1.00
21255;DHT22;10785;50.674;17.954;2024-02-26T00:45:36;7.80;1.00
21255;DHT22;10785;50.674;17.954;2024-02-26T00:48:19;7.60;1.00
21255;DHT22;10785;50.674;17.954;2024-02-26T00:50:58;7.90;1.00
21255;DHT22;10785;50.674;17.954;2024-02-26T00:53:43;7.20;1.00
21255;DHT22;10785;50.674;17.954;2024-02-26T00:56:27;7.10;1.00
21255;DHT22;10785;50.674;17.954;2024-02-26T00:59:14;7.90;1.00
21255;DHT22;10785;50.674;17.954;2024-02-26T01:01:55;7.10;1.00
21255;DHT22;10785;50.674;17.954;2024-02-26T01:04:34;7.30;1.00
21255;DHT22;10785;50.674;17.954;2024-02-26T01:07:12;7.30;1.00
21255;DHT22;10785;50.674;17.954;2024-02-26T01:09:41;8.30;1.00
21255;DHT22;10785;50.674;17.954;2024-02-26T01:12:12;7.20;1.00
21255;DHT22;10785;50.674;17.954;2024-02-26T01:14:51;7.20;1.00
21255;DHT22;10785;50.674;17.954;2024-02-26T01:17:28;7.20;1.00
21255;DHT22;10785;50.674;17.954;2024-02-26T01:20:07;7.30;1.00
21255;DHT22;10785;50.674;17.954;2024-02-26T01:22:41;7.30;1.00
21255;DHT22;10785;50.674;17.954;2024-02-26T01:25:22;7.70;1.00
21255;DHT22;10785;50.674;17.954;2024-02-26T01:28:06;7.40;1.00
21255;DHT22;10785;50.674;17.954;2024-02-26T01:30:54;7.30;1.00
21255;DHT22;10785;50.674;17.954;2024-02-26T01:33:33;7.20;1.00
21255;DHT22;10785;50.674;17.954;2024-02-26T01:36:13;7.20;1.00
21255;DHT22;10785;50.674;17.954;2024-02-26T01:38:44;7.10;1.00
21255;DHT22;10785;50.674;17.954;2024-02-26T01:41:25;7.00;1.00
21255;DHT22;10785;50.674;17.954;2024-02-26T01:44:06;7.00;1.00
21255;DHT22;10785;50.674;17.954;2024-02-26T01:46:58;6.70;1.00
21255;DHT22;10785;50.674;17.954;2024-02-26T01:49:42;7.40;1.00
21255;DHT22;10785;50.674;17.954;2024-02-26T01:52:18;7.00;19.40
21255;DHT22;10785;50.674;17.954;2024-02-26T01:55:11;7.10;45.70
21255;DHT22;10785;50.674;17.954;2024-02-26T01:58:07;6.70;6.80
21255;DHT22;10785;50.674;17.954;2024-02-26T02:00:47;6.20;1.00
21255;DHT22;10785;50.674;17.954;2024-02-26T05:22:34;5.30;99.90
21255;DHT22;10785;50.674;17.954;2024-02-26T05:25:04;5.20;1.00
21255;DHT22;10785;50.674;17.954;2024-02-26T05:27:33;5.20;1.00
21255;DHT22;10785;50.674;17.954;2024-02-26T05:30:03;5.20;1.00
21255;DHT22;10785;50.674;17.954;2024-02-26T05:32:32;5.20;1.00
21255;DHT22;10785;50.674;17.954;2024-02-26T05:35:01;5.20;1.00
21255;DHT22;10785;50.674;17.954;2024-02-26T05:37:31;5.20;1.00
21255;DHT22;10785;50.674;17.954;2024-02-26T05:40:03;5.30;99.90
21255;DHT22;10785;50.674;17.954;2024-02-26T05:42:38;5.30;99.90
21255;DHT22;10785;50.674;17.954;2024-02-26T05:45:12;5.20;99.90
21255;DHT22;10785;50.674;17.954;2024-02-26T05:47:44;5.30;99.90
21255;DHT22;10785;50.674;17.954;2024-02-26T05:50:14;5.40;99.90
21255;DHT22;10785;50.674;17.954;2024-02-26T05:52:52;5.80;99.90
21255;DHT22;10785;50.674;17.954;2024-02-26T05:55:30;5.50;99.90
21255;DHT22;10785;50.674;17.954;2024-02-26T05:58:11;5.50;99.90
21255;DHT22;10785;50.674;17.954;2024-02-26T06:00:46;5.60;99.90
21255;DHT22;10785;50.674;17.954;2024-02-26T06:03:25;5.70;99.90
21255;DHT22;10785;50.674;17.954;2024-02-26T06:06:13;5.80;99.90
21255;DHT22;10785;50.674;17.954;2024-02-26T06:08:55;5.80;99.90
21255;DHT22;10785;50.674;17.954;2024-02-26T06:11:57;5.90;96.40
21255;DHT22;10785;50.674;17.954;2024-02-26T06:14:43;5.90;65.00
21255;DHT22;10785;50.674;17.954;2024-02-26T06:17:33;8.10;32.60
21255;DHT22;10785;50.674;17.954;2024-02-26T06:20:20;6.10;5.10
21255;DHT22;10785;50.674;17.954;2024-02-26T06:22:56;6.20;1.00
21255;DHT22;10785;50.674;17.954;2024-02-26T06:25:39;6.20;1.00
21255;DHT22;10785;50.674;17.954;2024-02-26T06:28:22;6.30;1.00
21255;DHT22;10785;50.674;17.954;2024-02-26T06:30:53;6.30;1.00
21255;DHT22;10785;50.674;17.954;2024-02-26T06:33:21;6.40;1.00
21255;DHT22;10785;50.674;17.954;2024-02-26T06:35:56;6.50;1.00
21255;DHT22;10785;50.674;17.954;2024-02-26T06:38:33;6.50;1.00
21255;DHT22;10785;50.674;17.954;2024-02-26T06:41:03;6.60;1.00
21255;DHT22;10785;50.674;17.954;2024-02-26T06:43:36;6.70;1.00
21255;DHT22;10785;50.674;17.954;2024-02-26T06:46:21;6.80;1.00
21255;DHT22;10785;50.674;17.954;2024-02-26T06:48:58;6.90;1.00
21255;DHT22;10785;50.674;17.954;2024-02-26T06:51:33;6.90;1.00
21255;DHT22;10785;50.674;17.954;2024-02-26T06:54:09;7.10;1.00
21255;DHT22;10785;50.674;17.954;2024-02-26T06:56:45;7.10;1.00
21255;DHT22;10785;50.674;17.954;2024-02-26T06:59:23;7.20;1.00
21255;DHT22;10785;50.674;17.954;2024-02-26T07:02:07;7.30;1.00
21255;DHT22;10785;50.674;17.954;2024-02-26T07:04:53;7.30;1.00
21255;DHT22;10785;50.674;17.954;2024-02-26T07:07:36;7.50;1.00
21255;DHT22;10785;50.674;17.954;2024-02-26T07:10:16;7.50;1.00
21255;DHT22;10785;50.674;17.954;2024-02-26T07:12:48;7.70;1.00
21255;DHT22;10785;50.674;17.954;2024-02-26T07:15:28;7.70;1.00
21255;DHT22;10785;50.674;17.954;2024-02-26T07:18:05;7.80;1.00
21255;DHT22;10785;50.674;17.954;2024-02-26T07:20:40;7.80;1.00
21255;DHT22;10785;50.674;17.954;2024-02-26T07:23:26;7.80;1.00
21255;DHT22;10785;50.674;17.954;2024-02-26T07:25:59;7.70;1.00
21255;DHT22;10785;50.674;17.954;2024-02-26T07:28:39;7.70;1.00
21255;DHT22;10785;50.674;17.954;2024-02-26T07:31:17;7.70;1.00
21255;DHT22;10785;50.674;17.954;2024-02-26T07:34:00;7.80;1.00
21255;DHT22;10785;50.674;17.954;2024-02-26T07:36:36;7.80;1.00
21255;DHT22;10785;50.674;17.954;2024-02-26T07:42:12;7.90;1.00
21255;DHT22;10785;50.674;17.954;2024-02-26T07:44:45;8.00;1.00
21255;DHT22;10785;50.674;17.954;2024-02-26T07:47:27;8.00;1.00
21255;DHT22;10785;50.674;17.954;2024-02-26T07:50:01;8.10;1.00
21255;DHT22;10785;50.674;17.954;2024-02-26T07:52:41;8.10;1.00
21255;DHT22;10785;50.674;17.954;2024-02-26T07:55:23;9.60;1.00
21255;DHT22;10785;50.674;17.954;2024-02-26T07:57:59;8.10;1.00
21255;DHT22;10785;50.674;17.954;2024-02-26T08:00:29;8.20;1.00
21255;DHT22;10785;50.674;17.954;2024-02-26T08:03:08;8.30;1.00
21255;DHT22;10785;50.674;17.954;2024-02-26T08:05:41;8.30;1.00
21255;DHT22;10785;50.674;17.954;2024-02-26T08:08:14;8.50;1.00
21255;DHT22;10785;50.674;17.954;2024-02-26T08:10:44;8.60;1.00
21255;DHT22;10785;50.674;17.954;2024-02-26T08:13:20;8.70;1.00
21255;DHT22;10785;50.674;17.954;2024-02-26T08:15:55;8.80;1.00
21255;DHT22;10785;50.674;17.954;2024-02-26T08:18:36;9.00;1.00
21255;DHT22;10785;50.674;17.954;2024-02-26T08:21:19;9.10;1.00
21255;DHT22;10785;50.674;17.954;2024-02-26T08:24:00;9.20;1.00
21255;DHT22;10785;50.674;17.954;2024-02-26T08:26:46;9.30;1.00
21255;DHT22;10785;50.674;17.954;2024-02-26T08:29:30;9.40;1.00
21255;DHT22;10785;50.674;17.954;2024-02-26T08:32:10;9.60;1.00
21255;DHT22;10785;50.674;17.954;2024-02-26T08:34:43;9.80;1.00
21255;DHT22;10785;50.674;17.954;2024-02-26T08:37:14;9.90;1.00
21255;DHT22;10785;50.674;17.954;2024-02-26T08:39:45;10.10;1.00
21255;DHT22;10785;50.674;17.954;2024-02-26T08:42:17;10.20;1.00
21255;DHT22;10785;50.674;17.954;2024-02-26T08:44:48;10.40;1.00
